Time;durP1;ratioP1;P1;durP2;ratioP2;P2;SDS_P1;SDS_P2;PMS_P1;PMS_P2;Temp;Humidity;BMP_temperature;BMP_pressure;BME280_temperature;BME280_humidity;BME280_pressure;Samples;Min_cycle;Max_cycle;Signal;HPM_P1;HPM_P2
2024/01/16 00:00:08;;;;;;;1999.90;999.90;;;-0.20;99.90;;;;;;5068671;28;20036;-80
2024/01/16 00:02:34;;;;;;;1999.90;999.90;;;-0.20;99.90;;;;;;5071960;28;20043;-82
2024/01/16 00:05:00;;;;;;;1999.90;999.90;;;-0.20;99.90;;;;;;5073341;28;20141;-81
2024/01/16 00:07:25;;;;;;;1999.90;999.90;;;-0.20;99.90;;;;;;5070081;28;20032;-80
2024/01/16 00:09:53;;;;;;;1999.90;999.90;;;-0.30;99.90;;;;;;5066284;28;20033;-80
2024/01/16 00:12:19;;;;;;;1999.90;999.90;;;-0.30;99.90;;;;;;5052884;28;20090;-80
2024/01/16 00:14:45;;;;;;;1999.90;999.90;;;-0.30;99.90;;;;;;5049446;28;20107;-79
2024/01/16 00:17:11;;;;;;;1999.90;999.90;;;-0.30;99.90;;;;;;5075263;28;20369;-80
2024/01/16 00:19:37;;;;;;;1999.90;999.90;;;-0.30;99.90;;;;;;5072704;28;20118;-82
2024/01/16 00:22:04;;;;;;;1999.90;999.90;;;-0.30;99.90;;;;;;5047105;28;20119;-80
2024/01/16 00:24:30;;;;;;;1999.90;999.90;;;-0.30;99.90;;;;;;5050580;28;20068;-80
2024/01/16 00:26:56;;;;;;;1999.90;999.90;;;-0.40;99.90;;;;;;5063357;28;20045;-80
2024/01/16 00:29:21;;;;;;;1999.90;999.90;;;-0.40;99.90;;;;;;5067649;28;20082;-80
2024/01/16 00:31:47;;;;;;;1999.90;999.90;;;-0.40;99.90;;;;;;5052716;28;20036;-80
2024/01/16 00:34:13;;;;;;;1999.90;999.90;;;-0.40;99.90;;;;;;5064498;28;20033;-80
2024/01/16 00:36:39;;;;;;;1999.90;999.90;;;-0.40;99.90;;;;;;5065938;28;20566;-79
2024/01/16 00:39:04;;;;;;;1999.90;999.90;;;-0.40;99.90;;;;;;5064365;28;20523;-80
2024/01/16 00:41:30;;;;;;;1999.90;999.90;;;-0.40;99.90;;;;;;5069046;28;20047;-79
2024/01/16 00:43:56;;;;;;;1999.90;999.90;;;-0.40;99.90;;;;;;5066694;28;20059;-79
2024/01/16 00:46:21;;;;;;;1999.90;999.90;;;-0.40;99.90;;;;;;5075029;28;20051;-80
2024/01/16 00:48:48;;;;;;;1999.90;999.90;;;-0.40;99.90;;;;;;5055024;28;20132;-80
2024/01/16 00:51:13;;;;;;;1999.90;999.90;;;-0.40;99.90;;;;;;5072179;28;20056;-80
2024/01/16 00:53:43;;;;;;;1999.90;999.90;;;-0.50;99.90;;;;;;5049450;28;20037;-79
2024/01/16 00:56:09;;;;;;;1999.90;999.90;;;-0.50;99.90;;;;;;5065087;28;20040;-80
2024/01/16 00:58:35;;;;;;;1999.90;999.90;;;-0.50;99.90;;;;;;5065164;28;20052;-79
2024/01/16 01:01:01;;;;;;;1999.90;999.90;;;-0.50;99.90;;;;;;5068626;28;20037;-80
2024/01/16 01:03:26;;;;;;;1999.90;999.90;;;-0.50;99.90;;;;;;5068809;28;20072;-80
2024/01/16 01:05:52;;;;;;;1999.90;999.90;;;-0.50;99.90;;;;;;5072609;28;20052;-80
2024/01/16 01:08:18;;;;;;;1999.90;999.90;;;-0.50;99.90;;;;;;5071798;28;20036;-80
2024/01/16 01:10:44;;;;;;;1999.90;999.90;;;-0.40;99.90;;;;;;5060486;28;20044;-80
2024/01/16 01:13:09;;;;;;;1999.90;999.90;;;-0.30;99.90;;;;;;5051390;28;20045;-80
2024/01/16 01:15:35;;;;;;;1999.90;999.90;;;-0.30;99.90;;;;;;5068277;28;20036;-80
2024/01/16 01:18:01;;;;;;;1999.90;999.90;;;-0.20;99.90;;;;;;5075048;28;20505;-80
2024/01/16 01:20:26;;;;;;;1999.90;999.90;;;-0.10;99.90;;;;;;5074428;28;20033;-81
2024/01/16 01:22:52;;;;;;;1999.90;999.90;;;0.10;99.90;;;;;;5072275;28;20041;-80
2024/01/16 01:25:17;;;;;;;1999.90;999.90;;;0.60;99.90;;;;;;5073679;28;20045;-80
2024/01/16 01:27:45;;;;;;;1999.90;999.90;;;0.10;99.90;;;;;;5077488;28;20175;-77
2024/01/16 01:30:11;;;;;;;1999.90;999.90;;;0.00;99.90;;;;;;5066861;28;20420;-77
2024/01/16 01:32:37;;;;;;;1999.90;999.90;;;-0.10;99.90;;;;;;5062438;28;20029;-77
2024/01/16 01:35:03;;;;;;;1999.90;999.90;;;-0.10;99.90;;;;;;5070187;28;20493;-78
2024/01/16 01:37:29;;;;;;;1999.90;999.90;;;-0.20;99.90;;;;;;5044866;28;20043;-77
2024/01/16 01:39:55;;;;;;;1999.90;999.90;;;-0.20;99.90;;;;;;5069888;28;20040;-78
2024/01/16 01:42:20;;;;;;;1999.90;999.90;;;-0.20;99.90;;;;;;5075143;28;20488;-80
2024/01/16 01:44:46;;;;;;;1999.90;999.90;;;-0.30;99.90;;;;;;5054055;28;20040;-79
2024/01/16 01:47:15;;;;;;;1999.90;999.90;;;-0.30;99.90;;;;;;5068003;28;20040;-80
2024/01/16 01:49:41;;;;;;;1999.90;999.90;;;-0.40;99.90;;;;;;5070488;28;20033;-80
2024/01/16 01:52:08;;;;;;;1999.90;999.90;;;-0.40;99.90;;;;;;5075336;28;20037;-81
2024/01/16 01:54:35;;;;;;;1999.90;999.90;;;-0.50;99.90;;;;;;5062313;28;20051;-79
2024/01/16 01:57:02;;;;;;;1999.90;999.90;;;-0.60;99.90;;;;;;5050236;28;20063;-79
2024/01/16 01:59:28;;;;;;;1999.90;999.90;;;-0.60;99.90;;;;;;5069906;28;20033;-79
2024/01/16 02:01:55;;;;;;;1999.90;999.90;;;-0.60;99.90;;;;;;5052459;28;20047;-80
2024/01/16 02:04:22;;;;;;;1999.90;999.90;;;-0.70;99.90;;;;;;5070821;28;20037;-79
2024/01/16 02:06:48;;;;;;;1999.90;999.90;;;-0.70;99.90;;;;;;5074910;28;20041;-80
2024/01/16 02:09:14;;;;;;;1999.90;999.90;;;-0.70;99.90;;;;;;5052999;28;20032;-80
2024/01/16 02:11:43;;;;;;;1999.90;999.90;;;-0.70;99.90;;;;;;5057599;28;20089;-80
2024/01/16 02:14:10;;;;;;;1999.90;999.90;;;-0.60;99.90;;;;;;5074381;28;20531;-79
2024/01/16 02:16:40;;;;;;;1999.90;999.90;;;-0.50;99.90;;;;;;5051928;28;20036;-80
2024/01/16 02:19:07;;;;;;;1999.90;999.90;;;-0.40;99.90;;;;;;5067490;28;20032;-79
2024/01/16 02:21:49;;;;;;;1999.90;999.90;;;-0.20;99.90;;;;;;5076425;28;20048;-80
2024/01/16 02:24:17;;;;;;;1999.90;999.90;;;-0.20;99.90;;;;;;5055014;28;20375;-81
2024/01/16 02:26:43;;;;;;;1999.90;999.90;;;-0.20;99.90;;;;;;5070431;28;20040;-79
2024/01/16 02:29:09;;;;;;;1999.90;999.90;;;0.60;99.90;;;;;;5055067;28;20086;-80
2024/01/16 02:31:35;;;;;;;1999.90;999.90;;;-0.20;99.90;;;;;;5070749;28;20404;-80
2024/01/16 02:34:01;;;;;;;1999.90;999.90;;;-0.20;99.90;;;;;;5059272;28;20060;-80
2024/01/16 02:36:31;;;;;;;1999.90;999.90;;;-0.20;99.90;;;;;;5056946;28;20409;-80
2024/01/16 02:38:57;;;;;;;1999.90;999.90;;;-0.20;99.90;;;;;;5069907;28;20028;-82
2024/01/16 02:41:22;;;;;;;1999.90;999.90;;;0.70;99.90;;;;;;5066980;28;20059;-81
2024/01/16 02:43:48;;;;;;;1999.90;999.90;;;-0.30;99.90;;;;;;5068662;28;20037;-80
2024/01/16 02:46:14;;;;;;;1999.90;999.90;;;-0.30;99.90;;;;;;5073413;28;20037;-80
2024/01/16 02:48:42;;;;;;;1999.90;999.90;;;-0.30;99.90;;;;;;5052899;28;20397;-80
2024/01/16 02:51:08;;;;;;;1999.90;999.90;;;-0.30;99.90;;;;;;5066764;28;20101;-81
2024/01/16 02:53:34;;;;;;;1999.90;999.90;;;-0.30;99.90;;;;;;5049433;28;20123;-79
2024/01/16 02:55:59;;;;;;;1999.90;999.90;;;-0.30;99.90;;;;;;5053418;28;20497;-80
2024/01/16 02:58:29;;;;;;;1999.90;999.90;;;0.90;99.90;;;;;;5053931;28;20052;-79
2024/01/16 03:00:55;;;;;;;1999.90;999.90;;;-0.40;99.90;;;;;;5048838;28;20047;-80
2024/01/16 03:03:21;;;;;;;1999.90;999.90;;;-0.50;99.90;;;;;;5067750;28;20052;-79
2024/01/16 03:05:47;;;;;;;1999.90;999.90;;;-0.50;99.90;;;;;;5076439;28;20071;-80
2024/01/16 03:08:13;;;;;;;1999.90;999.90;;;-0.60;99.90;;;;;;5064443;28;20035;-79
2024/01/16 03:10:39;;;;;;;1999.90;999.90;;;-0.60;99.90;;;;;;5068922;28;20036;-80
2024/01/16 03:13:05;;;;;;;1999.90;999.90;;;-0.70;99.90;;;;;;5069420;28;20112;-79
2024/01/16 03:15:30;;;;;;;1999.90;999.90;;;-0.70;99.90;;;;;;5068935;28;20771;-80
2024/01/16 03:18:00;;;;;;;1999.90;999.90;;;-0.80;99.90;;;;;;5066913;28;20042;-80
2024/01/16 03:20:29;;;;;;;1999.90;999.90;;;-0.80;99.90;;;;;;5071157;28;20036;-80
2024/01/16 03:22:55;;;;;;;1999.90;999.90;;;-0.40;99.90;;;;;;5067321;28;20059;-80
2024/01/16 03:25:21;;;;;;;1999.90;999.90;;;-0.90;99.90;;;;;;5068523;28;20509;-79
2024/01/16 03:27:47;;;;;;;1999.90;999.90;;;-0.90;99.90;;;;;;5076419;28;20115;-80
2024/01/16 03:30:15;;;;;;;1999.90;999.90;;;-0.90;99.90;;;;;;5071895;28;20037;-80
2024/01/16 03:32:41;;;;;;;1999.90;999.90;;;-1.00;99.90;;;;;;5052345;28;20040;-80
2024/01/16 03:35:07;;;;;;;1999.90;999.90;;;-1.00;99.90;;;;;;5064484;28;20036;-80
2024/01/16 03:37:33;;;;;;;1999.90;999.90;;;-1.00;99.90;;;;;;5051084;28;20041;-81
2024/01/16 03:39:59;;;;;;;1999.90;999.90;;;-1.00;99.90;;;;;;5066343;28;20090;-80
2024/01/16 03:42:25;;;;;;;1999.90;999.90;;;-1.00;99.90;;;;;;5066394;28;20047;-80
2024/01/16 03:44:51;;;;;;;1999.90;999.90;;;-1.00;99.90;;;;;;5073165;28;20116;-81
2024/01/16 03:47:16;;;;;;;1999.90;999.90;;;-1.10;99.90;;;;;;5067825;28;20059;-80
2024/01/16 03:49:42;;;;;;;1999.90;999.90;;;-1.10;99.90;;;;;;5071973;28;20052;-80
2024/01/16 03:52:08;;;;;;;1999.90;999.90;;;-1.10;99.90;;;;;;5069067;28;20119;-80
2024/01/16 03:54:33;;;;;;;1999.90;999.90;;;-1.20;99.90;;;;;;5068103;28;20044;-80
2024/01/16 03:56:59;;;;;;;1999.90;999.90;;;-1.10;99.90;;;;;;5046826;28;20084;-80
2024/01/16 03:59:25;;;;;;;1999.90;999.90;;;-1.20;99.90;;;;;;5068560;28;20058;-80
2024/01/16 04:01:50;;;;;;;1999.90;999.90;;;-1.20;99.90;;;;;;5059489;28;20040;-81
2024/01/16 04:04:16;;;;;;;1999.90;999.90;;;-1.20;99.90;;;;;;5051784;28;20043;-80
2024/01/16 04:06:42;;;;;;;1999.90;999.90;;;-1.20;99.90;;;;;;5055702;28;20079;-81
2024/01/16 04:09:09;;;;;;;1999.90;999.90;;;-1.10;99.90;;;;;;5067451;28;20033;-80
2024/01/16 04:11:35;;;;;;;1999.90;999.90;;;-1.20;99.90;;;;;;5071991;28;20063;-80
2024/01/16 04:14:01;;;;;;;1999.90;999.90;;;-1.10;99.90;;;;;;5050865;28;20082;-80
2024/01/16 04:16:27;;;;;;;1999.90;999.90;;;-1.20;99.90;;;;;;5072204;28;20032;-80
2024/01/16 04:18:53;;;;;;;1999.90;999.90;;;-1.20;99.90;;;;;;5074971;28;20064;-80
2024/01/16 04:21:19;;;;;;;1999.90;999.90;;;-1.10;99.90;;;;;;5037524;28;20037;-79
2024/01/16 04:23:45;;;;;;;1999.90;999.90;;;-1.10;99.90;;;;;;5070842;28;20497;-81
2024/01/16 04:26:10;;;;;;;1999.90;999.90;;;-1.10;99.90;;;;;;5048291;28;20045;-80
2024/01/16 04:28:39;;;;;;;1999.90;999.90;;;-1.10;99.90;;;;;;5068807;28;20060;-80
2024/01/16 04:31:05;;;;;;;1999.90;999.90;;;-1.10;99.90;;;;;;5051880;28;20040;-80
2024/01/16 04:33:31;;;;;;;1999.90;999.90;;;-1.10;99.90;;;;;;5047781;28;20029;-81
2024/01/16 04:35:57;;;;;;;1999.90;999.90;;;-1.00;99.90;;;;;;5050768;28;20037;-80
2024/01/16 04:38:23;;;;;;;1999.90;999.90;;;-1.00;99.90;;;;;;5071047;28;20040;-81
2024/01/16 04:40:49;;;;;;;1999.90;999.90;;;-1.00;99.90;;;;;;5061880;28;20032;-79
2024/01/16 04:43:14;;;;;;;1999.90;999.90;;;-1.00;99.90;;;;;;5072198;28;20075;-80
2024/01/16 04:45:40;;;;;;;1999.90;999.90;;;-1.00;99.90;;;;;;5049174;28;20033;-81
2024/01/16 04:48:06;;;;;;;1999.90;999.90;;;-1.00;99.90;;;;;;5059035;28;20071;-81
2024/01/16 04:50:32;;;;;;;1999.90;999.90;;;-1.00;99.90;;;;;;5069965;28;20048;-80
2024/01/16 04:53:01;;;;;;;1999.90;999.90;;;-1.00;99.90;;;;;;5066987;28;20036;-80
2024/01/16 04:55:28;;;;;;;1999.90;999.90;;;-0.90;99.90;;;;;;5052531;28;20051;-80
2024/01/16 04:57:56;;;;;;;1999.90;999.90;;;-0.90;99.90;;;;;;5074055;28;20121;-80
2024/01/16 05:00:22;;;;;;;1999.90;999.90;;;-0.90;99.90;;;;;;5052549;28;20044;-80
2024/01/16 05:02:49;;;;;;;1999.90;999.90;;;-0.90;99.90;;;;;;5045989;28;20128;-80
2024/01/16 05:05:15;;;;;;;1999.90;999.90;;;-0.90;99.90;;;;;;5073567;28;20102;-80
2024/01/16 05:07:41;;;;;;;1999.90;999.90;;;-0.90;99.90;;;;;;5053149;28;20492;-80
2024/01/16 05:10:09;;;;;;;1999.90;999.90;;;-0.90;99.90;;;;;;5051084;28;20032;-80
2024/01/16 05:12:35;;;;;;;1999.90;999.90;;;-0.90;99.90;;;;;;5056461;28;20044;-80
2024/01/16 05:15:01;;;;;;;1999.90;999.90;;;-0.90;99.90;;;;;;5073857;28;20036;-80
2024/01/16 05:17:26;;;;;;;1999.90;999.90;;;0.10;99.90;;;;;;5055774;28;20033;-80
2024/01/16 05:19:52;;;;;;;1999.90;999.90;;;-0.90;99.90;;;;;;5067586;28;20037;-80
2024/01/16 05:22:17;;;;;;;1999.90;999.90;;;-0.80;99.90;;;;;;5065566;28;20051;-80
2024/01/16 05:24:43;;;;;;;1999.90;999.90;;;-0.80;99.90;;;;;;5050745;28;20075;-80
2024/01/16 05:27:09;;;;;;;1999.90;999.90;;;-0.80;99.90;;;;;;5053347;28;20040;-79
2024/01/16 05:29:37;;;;;;;1999.90;999.90;;;0.70;99.90;;;;;;5053713;28;20033;-81
2024/01/16 05:32:03;;;;;;;1999.90;999.90;;;-0.70;99.90;;;;;;5069561;28;20037;-80
2024/01/16 05:34:29;;;;;;;1999.90;999.90;;;-0.70;99.90;;;;;;5064511;28;20435;-80
2024/01/16 05:36:55;;;;;;;1999.90;999.90;;;-0.60;99.90;;;;;;5055327;28;20060;-80
2024/01/16 05:39:21;;;;;;;1999.90;999.90;;;-0.60;99.90;;;;;;5069599;28;20036;-80
2024/01/16 05:41:46;;;;;;;1999.90;999.90;;;-0.50;99.90;;;;;;5074400;28;20035;-79
2024/01/16 05:44:12;;;;;;;1999.90;999.90;;;-0.50;99.90;;;;;;5071667;28;20082;-81
2024/01/16 05:46:38;;;;;;;1999.90;999.90;;;0.90;99.90;;;;;;5055549;28;20062;-80
2024/01/16 05:49:03;;;;;;;1999.90;999.90;;;-0.40;99.90;;;;;;5067753;28;20504;-80
2024/01/16 05:51:29;;;;;;;1999.90;999.90;;;-0.30;99.90;;;;;;5073584;28;20041;-80
2024/01/16 05:53:55;;;;;;;1999.90;999.90;;;0.30;99.90;;;;;;5072226;28;20044;-80
2024/01/16 05:56:21;;;;;;;1999.90;999.90;;;-0.20;99.90;;;;;;5074030;28;20051;-79
2024/01/16 05:58:46;;;;;;;1999.90;999.90;;;-0.20;99.90;;;;;;5076244;28;20028;-80
2024/01/16 06:01:15;;;;;;;1999.90;999.90;;;-0.20;99.90;;;;;;5071038;28;20036;-81
2024/01/16 06:03:41;;;;;;;1999.90;999.90;;;-0.10;99.90;;;;;;5055540;28;20507;-81
2024/01/16 06:06:07;;;;;;;1999.90;999.90;;;-0.10;99.90;;;;;;5067115;28;20098;-81
2024/01/16 06:08:33;;;;;;;1999.90;999.90;;;0.00;99.90;;;;;;5070121;28;20094;-81
2024/01/16 06:10:59;;;;;;;1999.90;999.90;;;0.00;99.90;;;;;;5072612;28;20041;-83
2024/01/16 06:13:25;;;;;;;1999.90;999.90;;;1.60;99.90;;;;;;5074022;28;20127;-80
2024/01/16 06:15:50;;;;;;;1999.90;999.90;;;0.00;99.90;;;;;;5068843;28;20507;-81
2024/01/16 06:18:16;;;;;;;1999.90;999.90;;;0.00;99.90;;;;;;5067646;28;20068;-81
2024/01/16 06:20:41;;;;;;;1999.90;999.90;;;-0.10;99.90;;;;;;5051308;28;20040;-80
2024/01/16 06:23:07;;;;;;;1999.90;999.90;;;-0.10;99.90;;;;;;5074103;28;20036;-81
2024/01/16 06:25:33;;;;;;;1999.90;999.90;;;0.50;99.90;;;;;;5070835;28;20519;-82
2024/01/16 06:27:58;;;;;;;1999.90;999.90;;;-0.20;99.90;;;;;;5070598;28;20037;-83
2024/01/16 06:30:24;;;;;;;1999.90;999.90;;;-0.20;99.90;;;;;;5058847;28;20059;-82
2024/01/16 06:32:50;;;;;;;1999.90;999.90;;;1.10;99.90;;;;;;5051560;28;20036;-82
2024/01/16 06:35:16;;;;;;;1999.90;999.90;;;0.90;99.90;;;;;;5051278;28;20068;-83
2024/01/16 06:37:42;;;;;;;1999.90;999.90;;;-0.20;99.90;;;;;;5050736;28;20041;-82
2024/01/16 06:40:09;;;;;;;1999.90;999.90;;;-0.20;99.90;;;;;;5068273;28;20063;-82
2024/01/16 06:42:35;;;;;;;1999.90;999.90;;;-0.20;99.90;;;;;;5075990;28;20135;-83
2024/01/16 06:45:02;;;;;;;1999.90;999.90;;;0.30;99.90;;;;;;5058970;28;20039;-82
2024/01/16 06:47:28;;;;;;;1999.90;999.90;;;-0.20;99.90;;;;;;5055353;28;20032;-82
2024/01/16 06:49:53;;;;;;;1999.90;999.90;;;-0.20;99.90;;;;;;5060327;28;20468;-82
2024/01/16 06:52:19;;;;;;;1999.90;999.90;;;0.10;99.90;;;;;;5065295;28;20460;-83
2024/01/16 06:54:45;;;;;;;1999.90;999.90;;;-0.20;99.90;;;;;;5052538;28;20091;-82
2024/01/16 06:57:11;;;;;;;1999.90;999.90;;;0.80;99.90;;;;;;5055111;28;20036;-82
2024/01/16 06:59:36;;;;;;;1999.90;999.90;;;1.20;99.90;;;;;;5062410;28;20419;-82
2024/01/16 07:02:03;;;;;;;1999.90;999.90;;;-0.20;99.90;;;;;;5070911;28;20032;-83
2024/01/16 07:04:29;;;;;;;1999.90;999.90;;;-0.30;99.90;;;;;;5068194;28;20041;-82
2024/01/16 07:06:54;;;;;;;1999.90;999.90;;;-0.20;99.90;;;;;;5052362;28;20032;-82
2024/01/16 07:09:20;;;;;;;1999.90;999.90;;;-0.30;99.90;;;;;;5069381;28;20098;-83
2024/01/16 07:11:47;;;;;;;1999.90;999.90;;;-0.20;99.90;;;;;;5066668;28;20045;-81
2024/01/16 07:14:13;;;;;;;1999.90;999.90;;;0.60;99.90;;;;;;5054559;28;20543;-82
2024/01/16 07:16:38;;;;;;;1999.90;999.90;;;-0.30;99.90;;;;;;5062056;28;20041;-79
2024/01/16 07:19:04;;;;;;;1999.90;999.90;;;-0.30;99.90;;;;;;5078510;28;20409;-79
2024/01/16 07:21:31;;;;;;;1999.90;999.90;;;1.30;99.90;;;;;;5057896;28;20052;-80
2024/01/16 07:24:29;;;;;;;1999.90;999.90;;;-0.30;99.90;;;;;;5052908;28;20270;-79
2024/01/16 07:26:54;;;;;;;1999.90;999.90;;;-0.20;99.90;;;;;;5048669;28;20548;-82
2024/01/16 07:29:20;;;;;;;1999.90;999.90;;;-0.30;99.90;;;;;;5077002;28;20055;-83
2024/01/16 07:35:16;;;;;;;1999.90;999.90;;;-0.50;99.90;;;;;;5063595;28;20048;-81
2024/01/16 07:37:41;;;;;;;1999.90;999.90;;;0.60;99.90;;;;;;5049595;28;20045;-82
2024/01/16 07:40:09;;;;;;;1999.90;999.90;;;-0.30;99.90;;;;;;5051911;28;20127;-81
2024/01/16 07:42:35;;;;;;;1999.90;999.90;;;-1.30;99.90;;;;;;5064656;28;20059;-83
2024/01/16 07:45:04;;;;;;;1999.90;999.90;;;-0.20;99.90;;;;;;5069524;28;20123;-82
2024/01/16 07:47:33;;;;;;;1999.90;999.90;;;-0.30;99.90;;;;;;5066633;28;20040;-82
2024/01/16 07:50:02;;;;;;;1999.90;999.90;;;-0.30;99.90;;;;;;5071048;28;20167;-82
2024/01/16 07:52:28;;;;;;;1999.90;999.90;;;-0.30;99.90;;;;;;5048644;28;20033;-82
2024/01/16 07:54:54;;;;;;;1999.90;999.90;;;-0.20;99.90;;;;;;5065593;28;20041;-82
2024/01/16 07:57:20;;;;;;;1999.90;999.90;;;0.90;99.90;;;;;;5074467;28;20032;-81
2024/01/16 07:59:46;;;;;;;1999.90;999.90;;;-0.20;99.90;;;;;;5066319;28;20101;-83
2024/01/16 08:02:12;;;;;;;1999.90;999.90;;;-0.20;99.90;;;;;;5061746;28;20064;-81
2024/01/16 08:04:37;;;;;;;1999.90;999.90;;;-0.20;99.90;;;;;;5057102;28;20041;-82
2024/01/16 08:07:03;;;;;;;1999.90;999.90;;;-0.20;99.90;;;;;;5048522;28;20041;-82
2024/01/16 08:09:29;;;;;;;1999.90;999.90;;;-0.10;99.90;;;;;;5053553;28;20047;-82
2024/01/16 08:11:54;;;;;;;1999.90;999.90;;;-0.10;99.90;;;;;;5066351;28;20464;-83
2024/01/16 08:14:20;;;;;;;1999.90;999.90;;;-0.10;99.90;;;;;;5065729;28;20044;-82
2024/01/16 08:16:46;;;;;;;1999.90;999.90;;;0.00;99.90;;;;;;5051445;28;20116;-82
2024/01/16 08:19:11;;;;;;;1999.90;999.90;;;0.00;99.90;;;;;;5056037;28;20036;-82
2024/01/16 08:21:37;;;;;;;1999.90;999.90;;;0.00;99.90;;;;;;5049178;28;20044;-83
2024/01/16 08:24:03;;;;;;;1999.90;999.90;;;0.00;99.90;;;;;;5069319;28;20115;-82
2024/01/16 08:26:29;;;;;;;1999.90;999.90;;;0.10;99.90;;;;;;5047509;28;20107;-82
2024/01/16 08:28:54;;;;;;;1999.90;999.90;;;0.30;99.90;;;;;;5050431;28;20094;-82
2024/01/16 08:31:20;;;;;;;1999.90;999.90;;;0.20;99.90;;;;;;5070368;28;20090;-82
2024/01/16 08:33:47;;;;;;;1999.90;999.90;;;0.20;99.90;;;;;;5056879;28;20071;-81
2024/01/16 08:36:13;;;;;;;1999.90;999.90;;;0.20;99.90;;;;;;5073096;28;20096;-83
2024/01/16 08:38:39;;;;;;;1999.90;999.90;;;0.30;99.90;;;;;;5052592;28;20037;-82
2024/01/16 08:41:06;;;;;;;1999.90;999.90;;;0.30;99.90;;;;;;5068325;28;20492;-82
2024/01/16 08:43:33;;;;;;;1999.90;999.90;;;0.90;99.90;;;;;;5049731;28;20460;-82
2024/01/16 08:45:59;;;;;;;1999.90;999.90;;;0.30;99.90;;;;;;5071637;28;20040;-82
2024/01/16 08:48:25;;;;;;;1999.90;999.90;;;0.30;99.90;;;;;;5068750;28;20043;-80
2024/01/16 08:50:51;;;;;;;1999.90;999.90;;;0.30;99.90;;;;;;5052160;28;20024;-80
2024/01/16 08:53:17;;;;;;;1999.90;999.90;;;0.40;99.90;;;;;;5055419;28;20090;-80
2024/01/16 08:55:43;;;;;;;1999.90;999.90;;;0.40;99.90;;;;;;5048850;28;20045;-79
2024/01/16 08:58:08;;;;;;;1999.90;999.90;;;0.50;99.90;;;;;;5048787;28;20048;-79
2024/01/16 09:00:34;;;;;;;1999.90;999.90;;;0.50;99.90;;;;;;5054800;28;20044;-80
2024/01/16 09:03:00;;;;;;;1999.90;999.90;;;0.70;99.90;;;;;;5049269;28;20040;-80
2024/01/16 09:05:26;;;;;;;1999.90;999.90;;;0.70;99.90;;;;;;5052922;28;20032;-82
2024/01/16 09:07:54;;;;;;;1999.90;999.90;;;1.50;99.90;;;;;;5065562;28;20036;-82
2024/01/16 09:10:20;;;;;;;1999.90;999.90;;;0.90;99.90;;;;;;5053232;28;20071;-83
2024/01/16 09:12:46;;;;;;;1999.90;999.90;;;1.10;99.90;;;;;;5049245;28;20429;-84
2024/01/16 09:15:12;;;;;;;1999.90;999.90;;;1.40;99.90;;;;;;5071605;28;20036;-82
2024/01/16 09:17:38;;;;;;;1999.90;999.90;;;1.20;99.90;;;;;;5054301;28;20120;-80
2024/01/16 09:20:06;;;;;;;1999.90;999.90;;;2.30;99.90;;;;;;5070964;28;20040;-80
2024/01/16 09:22:32;;;;;;;1999.90;999.90;;;1.40;99.90;;;;;;5055889;28;20460;-82
2024/01/16 09:24:58;;;;;;;1999.90;999.90;;;1.40;99.90;;;;;;5064271;28;20053;-83
2024/01/16 09:27:24;;;;;;;1999.90;999.90;;;2.40;99.90;;;;;;5067885;28;20096;-84
2024/01/16 09:29:51;;;;;;;1999.90;999.90;;;1.50;99.90;;;;;;5069837;28;20124;-82
2024/01/16 09:32:16;;;;;;;1999.90;999.90;;;1.50;99.90;;;;;;5072665;28;20036;-83
2024/01/16 09:34:42;;;;;;;1999.90;999.90;;;1.50;99.90;;;;;;5074353;28;20105;-83
2024/01/16 09:37:07;;;;;;;1999.90;999.90;;;1.60;99.90;;;;;;5071503;28;20402;-83
2024/01/16 09:39:34;;;;;;;1999.90;999.90;;;1.60;99.90;;;;;;5048578;28;20033;-82
2024/01/16 09:42:04;;;;;;;1999.90;999.90;;;1.60;99.90;;;;;;5060073;28;20139;-82
2024/01/16 09:44:34;;;;;;;1999.90;999.90;;;1.60;99.90;;;;;;5069475;28;20056;-82
2024/01/16 09:47:03;;;;;;;1999.90;999.90;;;1.60;99.90;;;;;;5073401;28;20070;-82
2024/01/16 09:49:29;;;;;;;1999.90;999.90;;;1.50;99.90;;;;;;5059907;28;20033;-82
2024/01/16 09:51:59;;;;;;;1999.90;999.90;;;2.80;99.90;;;;;;5072272;28;20032;-83
2024/01/16 09:54:26;;;;;;;1999.90;999.90;;;1.60;99.90;;;;;;5073347;28;20041;-82
2024/01/16 09:56:56;;;;;;;1999.90;999.90;;;1.60;99.90;;;;;;5073838;28;20277;-82
2024/01/16 09:59:22;;;;;;;1999.90;999.90;;;1.60;99.90;;;;;;5074822;28;20127;-82
2024/01/16 10:01:54;;;;;;;1999.90;999.90;;;1.70;99.90;;;;;;5076334;28;20069;-82
2024/01/16 10:04:19;;;;;;;1999.90;999.90;;;1.70;99.90;;;;;;5067265;28;20037;-82
2024/01/16 10:06:48;;;;;;;1999.90;999.90;;;1.80;99.90;;;;;;5055245;28;20043;-83
2024/01/16 10:09:15;;;;;;;1999.90;999.90;;;3.10;99.90;;;;;;5070833;28;20556;-82
2024/01/16 10:11:43;;;;;;;1999.90;999.90;;;2.90;99.90;;;;;;5052065;28;20056;-83
2024/01/16 10:14:10;;;;;;;1999.90;999.90;;;2.80;99.90;;;;;;5052096;28;20036;-82
2024/01/16 10:16:59;;;;;;;1999.90;999.90;;;3.00;99.90;;;;;;5062965;28;20099;-82
2024/01/16 10:19:29;;;;;;;1999.90;999.90;;;2.00;99.90;;;;;;5074045;28;20062;-83
2024/01/16 10:22:06;;;;;;;1999.90;999.90;;;2.00;99.90;;;;;;5058451;28;20043;-82
2024/01/16 10:24:33;;;;;;;1999.90;999.90;;;2.00;99.90;;;;;;5053195;28;20041;-82
2024/01/16 10:27:00;;;;;;;1999.90;999.90;;;1.90;99.90;;;;;;5076846;28;20800;-80
2024/01/16 10:29:26;;;;;;;1999.90;999.90;;;2.00;99.90;;;;;;5048884;28;20076;-79
2024/01/16 10:31:52;;;;;;;1999.90;999.90;;;2.00;99.90;;;;;;5046721;28;20032;-80
2024/01/16 10:34:22;;;;;;;1999.90;999.90;;;2.00;99.90;;;;;;5071199;28;20044;-79
2024/01/16 10:36:52;;;;;;;1999.90;999.90;;;2.30;99.90;;;;;;5073270;28;20045;-79
2024/01/16 10:39:17;;;;;;;1999.90;999.90;;;2.10;99.90;;;;;;5051305;28;20075;-80
2024/01/16 10:41:57;;;;;;;1999.90;999.90;;;2.20;99.90;;;;;;5063302;28;20047;-82
2024/01/16 10:44:23;;;;;;;1999.90;999.90;;;2.20;99.90;;;;;;5051031;28;20037;-82
2024/01/16 10:46:49;;;;;;;1999.90;999.90;;;2.20;99.90;;;;;;5074550;28;20033;-82
2024/01/16 10:49:15;;;;;;;1999.90;999.90;;;2.30;99.90;;;;;;5053852;28;20040;-79
2024/01/16 10:51:45;;;;;;;1999.90;999.90;;;3.10;99.90;;;;;;5059222;28;20047;-82
2024/01/16 10:54:14;;;;;;;1999.90;999.90;;;2.60;99.90;;;;;;5054321;28;20044;-79
2024/01/16 10:56:48;;;;;;;1999.90;999.90;;;2.90;99.90;;;;;;5046737;28;20490;-79
2024/01/16 10:59:26;;;;;;;1999.90;999.90;;;2.50;99.90;;;;;;5054969;28;20100;-80
2024/01/16 11:01:54;;;;;;;1999.90;999.90;;;2.80;99.90;;;;;;5054619;28;20405;-79
2024/01/16 11:04:21;;;;;;;1999.90;999.90;;;2.90;99.90;;;;;;5051319;28;20049;-81
2024/01/16 11:06:54;;;;;;;1999.90;999.90;;;2.50;99.90;;;;;;5058529;28;20095;-80
2024/01/16 11:09:21;;;;;;;1999.90;999.90;;;3.50;99.90;;;;;;5071652;28;20084;-81
2024/01/16 11:11:47;;;;;;;1999.90;999.90;;;3.20;99.90;;;;;;5075394;28;20071;-80
2024/01/16 11:14:16;;;;;;;1999.90;999.90;;;3.30;99.90;;;;;;5073114;28;20100;-80
2024/01/16 11:16:43;;;;;;;1999.90;999.90;;;3.50;99.90;;;;;;5068104;28;20264;-81
2024/01/16 11:19:09;;;;;;;1999.90;999.90;;;2.60;99.90;;;;;;5054573;28;20040;-80
2024/01/16 11:21:36;;;;;;;1999.90;999.90;;;2.50;99.90;;;;;;5075186;28;20036;-80
2024/01/16 11:24:02;;;;;;;1999.90;999.90;;;2.40;99.90;;;;;;5051685;28;20041;-81
2024/01/16 11:26:33;;;;;;;1999.90;999.90;;;2.40;99.90;;;;;;5051256;28;20045;-81
2024/01/16 11:29:00;;;;;;;1999.90;999.90;;;2.40;99.90;;;;;;5064170;28;20041;-81
2024/01/16 11:31:29;;;;;;;1999.90;999.90;;;3.00;99.90;;;;;;5054422;28;20115;-82
2024/01/16 11:33:55;;;;;;;1999.90;999.90;;;2.30;99.90;;;;;;5074304;28;20071;-81
2024/01/16 11:36:43;;;;;;;1999.90;999.90;;;2.30;99.90;;;;;;5065515;28;20036;-81
2024/01/16 11:39:16;;;;;;;1999.90;999.90;;;2.20;99.90;;;;;;5054617;28;20040;-82
2024/01/16 11:41:56;;;;;;;1999.90;999.90;;;2.20;99.90;;;;;;5072811;28;20033;-84
2024/01/16 11:44:46;;;;;;;1999.90;999.90;;;2.10;99.90;;;;;;5064643;28;20044;-84
2024/01/16 11:47:16;;;;;;;1999.90;999.90;;;2.70;99.90;;;;;;5056592;28;20045;-84
2024/01/16 11:49:41;;;;;;;1999.90;999.90;;;2.60;99.90;;;;;;5052674;28;20090;-84
2024/01/16 11:52:07;;;;;;;1999.90;999.90;;;3.00;99.90;;;;;;5050405;28;20044;-84
2024/01/16 11:54:34;;;;;;;1999.90;999.90;;;1.90;99.90;;;;;;5057812;28;20048;-84
2024/01/16 11:57:27;;;;;;;1999.90;999.90;;;2.40;99.90;;;;;;5060531;28;20040;-84
2024/01/16 11:59:58;;;;;;;1999.90;999.90;;;2.00;99.90;;;;;;5054013;28;20037;-84
2024/01/16 12:02:53;;;;;;;1999.90;999.90;;;2.00;99.90;;;;;;5051161;28;20071;-84
2024/01/16 12:05:19;;;;;;;1999.90;999.90;;;2.10;99.90;;;;;;5056188;28;20036;-84